Time;durP1;ratioP1;P1;durP2;ratioP2;P2;SDS_P1;SDS_P2;PMS_P1;PMS_P2;Temp;Humidity;BMP_temperature;BMP_pressure;BME280_temperature;BME280_humidity;BME280_pressure;Samples;Min_cycle;Max_cycle;Signal;HPM_P1;HPM_P2
2023/08/03 00:00:35;;;;;;;9.53;2.10;;;;;;;17.28;100.00;8671.47;5116009;27;20052;-75
2023/08/03 00:03:01;;;;;;;16.97;3.83;;;;;;;17.20;100.00;10401.72;5117306;28;20035;-74
2023/08/03 00:05:26;;;;;;;11.07;2.30;;;;;;;17.16;100.00;12479.53;5117684;28;20126;-75
2023/08/03 00:07:52;;;;;;;8.63;2.00;;;;;;;17.16;100.00;13865.97;5119114;28;20030;-75
2023/08/03 00:10:19;;;;;;;10.23;2.07;;;;;;;17.17;100.00;15947.00;5119090;28;20038;-76
2023/08/03 00:12:46;;;;;;;11.65;2.28;;;;;;;17.19;100.00;18029.22;5114953;28;20035;-75
2023/08/03 00:15:14;;;;;;;9.60;1.98;;;;;;;17.20;100.00;19418.06;5121264;27;20433;-76
2023/08/03 00:17:40;;;;;;;8.23;1.60;;;;;;;17.17;100.00;21500.78;5118951;27;20384;-75
2023/08/03 00:20:07;;;;;;;16.48;2.78;;;;;;;17.13;100.00;22541.41;5154540;27;20030;-75
2023/08/03 00:22:33;;;;;;;12.18;1.42;;;;;;;17.15;100.00;22194.78;5115455;27;20059;-75
2023/08/03 00:24:59;;;;;;;12.10;2.25;;;;;;;17.09;100.00;19761.38;5118356;27;20464;-75
2023/08/03 00:27:26;;;;;;;8.10;2.00;;;;;;;17.11;100.00;17332.66;5126066;27;20031;-75
2023/08/03 00:29:51;;;;;;;13.30;2.17;;;;;;;17.09;100.00;15944.69;5117050;27;20117;-76
2023/08/03 00:32:17;;;;;;;9.70;1.97;;;;;;;17.09;100.00;13864.19;5122040;27;20063;-73
2023/08/03 00:34:43;;;;;;;11.30;1.88;;;;;;;17.12;100.00;12132.09;5121697;27;20020;-73
2023/08/03 00:37:10;;;;;;;8.17;2.23;;;;;;;17.07;100.00;11784.50;5122019;27;20043;-73
2023/08/03 00:39:36;;;;;;;9.70;2.63;;;;;;;17.06;100.00;11784.28;5124123;27;20030;-74
2023/08/03 00:42:01;;;;;;;8.90;2.33;;;;;;;17.05;100.00;10745.03;5116178;27;20427;-73
2023/08/03 00:44:27;;;;;;;15.90;2.80;;;;;;;17.07;100.00;11091.72;5122931;27;20027;-73
2023/08/03 00:46:52;;;;;;;13.50;2.47;;;;;;;17.12;100.00;11785.63;5118606;27;20433;-73
2023/08/03 00:49:18;;;;;;;28.20;3.80;;;;;;;17.11;100.00;11785.50;5121345;27;20032;-72
2023/08/03 00:51:43;;;;;;;13.33;2.57;;;;;;;17.15;100.00;11439.94;5118850;27;20024;-72
2023/08/03 00:54:09;;;;;;;10.40;2.50;;;;;;;17.17;100.00;11093.81;5124729;27;20466;-73
2023/08/03 00:56:36;;;;;;;20.00;2.33;;;;;;;17.12;100.00;10400.13;5120406;27;20055;-72
2023/08/03 00:59:10;;;;;;;9.73;2.83;;;;;;;17.16;100.00;10054.47;5121113;27;20038;-73
2023/08/03 01:01:36;;;;;;;15.07;3.50;;;;;;;17.12;100.00;9015.00;5120969;27;20035;-73
2023/08/03 01:04:01;;;;;;;21.70;4.13;;;;;;;17.22;100.00;9016.78;5119596;27;20031;-73
2023/08/03 01:06:27;;;;;;;22.93;3.53;;;;;;;17.22;100.00;8670.44;5120909;27;20531;-73
2023/08/03 01:08:54;;;;;;;20.77;4.40;;;;;;;17.20;100.00;8670.19;5139660;27;20027;-73
2023/08/03 01:11:20;;;;;;;21.00;5.05;;;;;;;17.24;100.00;8670.88;5114844;27;20328;-73
2023/08/03 01:13:45;;;;;;;24.13;3.43;;;;;;;17.25;100.00;9017.31;5120860;27;20028;-73
2023/08/03 01:16:11;;;;;;;27.67;4.00;;;;;;;17.24;100.00;9709.78;5126283;27;20099;-73
2023/08/03 01:18:37;;;;;;;17.00;3.53;;;;;;;17.24;100.00;10402.53;5121767;27;20023;-73
2023/08/03 01:21:06;;;;;;;22.38;3.45;;;;;;;17.16;100.00;10747.31;5123589;27;20502;-74
2023/08/03 01:23:32;;;;;;;25.60;3.80;;;;;;;17.20;100.00;10401.72;5129447;27;20032;-74
2023/08/03 01:25:58;;;;;;;18.77;4.32;;;;;;;17.22;100.00;11441.47;5122132;27;20038;-74
2023/08/03 01:28:23;;;;;;;21.50;4.03;;;;;;;17.25;100.00;12135.19;5119847;27;20031;-74
2023/08/03 01:30:49;;;;;;;16.60;3.80;;;;;;;17.27;100.00;12482.13;5120517;27;20034;-74
2023/08/03 01:33:14;;;;;;;16.33;4.37;;;;;;;17.29;100.00;13175.88;5120763;27;20032;-74
2023/08/03 01:35:40;;;;;;;14.67;3.00;;;;;;;17.27;100.00;14215.69;5123526;27;20543;-73
2023/08/03 01:38:05;;;;;;;31.90;4.27;;;;;;;17.22;100.00;14214.22;5119931;27;20059;-75
2023/08/03 01:40:31;;;;;;;22.07;3.10;;;;;;;17.17;100.00;12133.25;5125290;27;20147;-74
2023/08/03 01:42:56;;;;;;;12.07;3.20;;;;;;;17.14;100.00;11093.19;5118078;27;20054;-74
2023/08/03 01:45:22;;;;;;;12.87;4.00;;;;;;;17.11;100.00;9707.31;5120591;27;20035;-73
2023/08/03 01:47:47;;;;;;;13.53;2.90;;;;;;;17.10;100.00;8668.38;5115990;27;20484;-74
2023/08/03 01:50:13;;;;;;;12.30;2.73;;;;;;;17.08;100.00;7975.78;5124769;27;20484;-74
2023/08/03 01:52:38;;;;;;;11.87;3.70;;;;;;;16.97;100.00;7974.09;5121630;27;20442;-74
2023/08/03 01:55:04;;;;;;;9.70;3.40;;;;;;;16.93;100.00;7627.38;5123684;27;20038;-74
2023/08/03 01:57:29;;;;;;;15.80;2.80;;;;;;;16.90;100.00;8318.97;5118998;27;20844;-74
2023/08/03 01:59:55;;;;;;;17.97;3.50;;;;;;;16.92;100.00;7973.19;5122403;27;20039;-73
2023/08/03 02:02:20;;;;;;;16.97;3.27;;;;;;;16.92;100.00;7973.19;5116648;27;20043;-73
2023/08/03 02:04:46;;;;;;;17.93;3.23;;;;;;;16.94;100.00;7281.53;5118164;27;20110;-73
2023/08/03 02:07:38;;;;;;;17.80;3.43;;;;;;;16.91;100.00;6935.25;5118138;27;20026;-74
2023/08/03 02:10:04;;;;;;;17.52;4.20;;;;;;;16.90;100.00;6935.09;5120053;27;20535;-74
2023/08/03 02:12:29;;;;;;;18.27;2.93;;;;;;;16.92;100.00;7281.25;5118402;27;20019;-74
2023/08/03 02:14:55;;;;;;;11.53;3.20;;;;;;;16.92;100.00;6935.31;5119241;27;20030;-74
2023/08/03 02:17:20;;;;;;;15.83;4.40;;;;;;;16.95;100.00;7627.75;5118466;27;20049;-74
2023/08/03 02:19:46;;;;;;;13.73;2.93;;;;;;;16.99;100.00;7628.28;5123694;27;20392;-74
2023/08/03 02:22:11;;;;;;;9.20;2.50;;;;;;;16.99;100.00;7282.28;5118585;27;20036;-74
2023/08/03 02:24:37;;;;;;;17.70;2.90;;;;;;;16.90;100.00;7280.94;5121028;27;20494;-75
2023/08/03 02:27:02;;;;;;;18.63;3.30;;;;;;;16.91;100.00;7281.09;5113894;27;20035;-75
2023/08/03 02:29:27;;;;;;;11.40;2.47;;;;;;;16.84;100.00;6934.16;5114288;27;20092;-75
2023/08/03 02:31:53;;;;;;;10.97;2.40;;;;;;;16.83;100.00;6242.34;5121307;27;20496;-75
2023/08/03 02:34:20;;;;;;;12.93;3.22;;;;;;;16.79;100.00;5896.06;5122896;27;20030;-75
2023/08/03 02:36:45;;;;;;;13.13;2.55;;;;;;;16.78;100.00;4513.25;5125938;27;20106;-75
2023/08/03 02:39:11;;;;;;;10.37;2.27;;;;;;;16.82;100.00;3822.38;5118712;27;20062;-74
2023/08/03 02:41:38;;;;;;;13.43;2.33;;;;;;;16.77;100.00;2785.44;5116656;27;20028;-74
2023/08/03 02:44:04;;;;;;;14.13;2.70;;;;;;;16.79;100.00;2440.09;5120498;27;20365;-74
2023/08/03 02:46:32;;;;;;;9.10;2.03;;;;;;;16.77;100.00;1403.81;5120670;27;20570;-74
2023/08/03 02:48:58;;;;;;;11.13;2.95;;;;;;;16.78;100.00;367.97;5114904;27;20035;-75
2023/08/03 02:51:24;;;;;;;8.47;2.90;;;;;;;16.76;100.00;-322.53;5118557;27;20073;-75
2023/08/03 02:53:49;;;;;;;10.70;2.40;;;;;;;16.76;100.00;-1012.81;5117823;27;20518;-75
2023/08/03 02:56:15;;;;;;;16.87;2.70;;;;;;;16.77;100.00;-1702.97;5113362;27;20656;-75
2023/08/03 02:58:40;;;;;;;9.03;3.07;;;;;;;16.81;100.00;-2048.03;5115356;27;20038;-76
2023/08/03 03:01:07;;;;;;;13.00;2.07;;;;;;;16.83;100.00;-2048.03;5118233;27;20080;-75
2023/08/03 03:03:32;;;;;;;13.82;2.22;;;;;;;16.83;100.00;-2393.09;5120149;27;20073;-76
2023/08/03 03:05:57;;;;;;;11.27;2.90;;;;;;;16.82;100.00;-2393.09;5107898;28;20401;-76
2023/08/03 03:08:23;;;;;;;9.90;3.13;;;;;;;16.85;100.00;-2393.09;5119381;27;20031;-78
2023/08/03 03:10:48;;;;;;;12.37;2.33;;;;;;;16.86;100.00;-3083.13;5118200;27;20019;-75
2023/08/03 03:13:14;;;;;;;16.83;2.30;;;;;;;16.88;100.00;-3428.16;5116108;27;20067;-73
2023/08/03 03:15:39;;;;;;;9.17;2.23;;;;;;;16.84;100.00;-3428.06;5116882;27;20032;-73
2023/08/03 03:18:05;;;;;;;7.40;2.17;;;;;;;16.86;100.00;-3428.09;5124978;27;20504;-74
2023/08/03 03:20:30;;;;;;;10.50;2.13;;;;;;;16.88;100.00;-3428.16;5128677;27;20031;-74
2023/08/03 03:22:56;;;;;;;10.03;2.40;;;;;;;16.90;100.00;-3428.22;5121981;27;20038;-73
2023/08/03 03:25:21;;;;;;;10.10;2.37;;;;;;;16.89;100.00;-2738.19;5119705;27;20114;-72
2023/08/03 03:27:47;;;;;;;19.67;3.27;;;;;;;16.85;100.00;-2393.09;5117038;27;20032;-74
2023/08/03 03:30:12;;;;;;;14.63;3.07;;;;;;;16.81;100.00;-2048.03;5120647;27;20027;-73
2023/08/03 03:32:38;;;;;;;14.70;3.03;;;;;;;16.83;100.00;-1012.72;5114054;27;20035;-73
2023/08/03 03:35:03;;;;;;;16.10;3.47;;;;;;;16.83;100.00;-322.34;5119408;27;20034;-73
2023/08/03 03:37:29;;;;;;;15.63;4.00;;;;;;;16.82;100.00;1058.75;5117138;27;20023;-73
2023/08/03 03:39:54;;;;;;;27.13;3.77;;;;;;;16.88;100.00;2440.78;5118818;27;20023;-73
2023/08/03 03:42:19;;;;;;;16.97;3.60;;;;;;;16.85;100.00;3822.72;5120315;27;20396;-73
2023/08/03 03:44:45;;;;;;;19.83;3.70;;;;;;;16.84;100.00;4859.50;5117221;27;20103;-75
2023/08/03 03:47:11;;;;;;;22.93;3.27;;;;;;;16.80;100.00;6241.94;5115574;27;20099;-72
2023/08/03 03:49:37;;;;;;;22.77;3.28;;;;;;;16.81;100.00;6933.72;5116382;27;20472;-74
2023/08/03 03:52:02;;;;;;;21.30;3.37;;;;;;;16.78;100.00;8316.97;5120530;27;20122;-72
2023/08/03 03:54:28;;;;;;;11.97;2.17;;;;;;;16.75;100.00;9008.44;5121506;28;20524;-73
2023/08/03 03:56:55;;;;;;;16.03;2.67;;;;;;;16.70;100.00;9353.53;5122521;28;20031;-73
2023/08/03 03:59:20;;;;;;;16.83;2.58;;;;;;;16.69;100.00;9007.28;5124001;28;20045;-73
2023/08/03 04:01:45;;;;;;;6.73;1.80;;;;;;;16.66;100.00;7969.03;5119067;28;20035;-74
2023/08/03 04:04:11;;;;;;;12.57;3.50;;;;;;;16.67;100.00;6931.72;5122093;28;20027;-73
2023/08/03 04:06:36;;;;;;;14.17;2.90;;;;;;;16.63;100.00;5894.09;5120235;28;20034;-73
2023/08/03 04:09:02;;;;;;;13.90;2.07;;;;;;;16.65;100.00;5548.63;5122857;28;20062;-74
2023/08/03 04:11:27;;;;;;;11.80;2.37;;;;;;;16.65;100.00;5203.06;5117987;28;20031;-74
2023/08/03 04:13:52;;;;;;;10.97;2.27;;;;;;;16.67;100.00;5548.88;5118163;27;20460;-75
2023/08/03 04:16:19;;;;;;;12.10;2.37;;;;;;;16.71;100.00;5203.69;5120621;28;20103;-73
2023/08/03 04:18:45;;;;;;;15.45;2.30;;;;;;;16.68;100.00;5203.34;5121877;28;20346;-73
2023/08/03 04:21:10;;;;;;;14.40;2.67;;;;;;;16.72;100.00;5549.53;5117348;27;20107;-74
2023/08/03 04:23:35;;;;;;;16.23;3.87;;;;;;;16.69;100.00;6586.22;5124337;28;20062;-76
2023/08/03 04:26:01;;;;;;;15.50;2.93;;;;;;;16.69;100.00;6586.22;5114174;28;20032;-75
2023/08/03 04:28:26;;;;;;;19.27;2.67;;;;;;;16.73;100.00;6586.78;5115598;28;20027;-77
2023/08/03 04:30:52;;;;;;;20.77;3.37;;;;;;;16.72;100.00;6932.44;5113808;28;20023;-75
2023/08/03 04:33:17;;;;;;;22.43;3.63;;;;;;;16.73;100.00;6586.78;5121042;28;20033;-75
2023/08/03 04:35:44;;;;;;;24.90;4.57;;;;;;;16.75;100.00;6932.88;5116895;28;20391;-75
2023/08/03 04:38:09;;;;;;;19.95;3.15;;;;;;;16.71;100.00;6932.38;5116127;28;20035;-75
2023/08/03 04:40:35;;;;;;;25.47;3.93;;;;;;;16.68;100.00;6931.94;5118089;28;20557;-75
2023/08/03 04:43:01;;;;;;;22.27;3.35;;;;;;;16.64;100.00;7622.94;5118851;28;20050;-75
2023/08/03 04:45:27;;;;;;;25.17;4.37;;;;;;;16.64;100.00;8314.56;5118540;28;20032;-76
2023/08/03 04:47:52;;;;;;;30.40;5.17;;;;;;;16.60;100.00;10389.63;5117854;27;20031;-75
2023/08/03 04:50:19;;;;;;;20.30;4.47;;;;;;;16.58;100.00;12466.09;5152255;27;20035;-75
2023/08/03 04:52:44;;;;;;;;;;;;;;;16.65;100.00;15585.22;5115463;28;20048;-75
2023/08/03 04:55:09;;;;;;;25.67;4.00;;;;;;;16.67;100.00;16972.38;5112378;28;20252;-75
2023/08/03 04:57:35;;;;;;;24.23;3.93;;;;;;;16.64;100.00;19398.81;5115044;28;20023;-75
2023/08/03 05:00:00;;;;;;;28.87;4.77;;;;;;;16.73;100.00;19748.69;5116057;27;20442;-74
2023/08/03 05:02:26;;;;;;;17.67;4.60;;;;;;;16.71;100.00;21136.03;5117016;27;20027;-75
2023/08/03 05:04:51;;;;;;;18.57;3.17;;;;;;;16.69;100.00;22523.72;5121419;27;20027;-76
2023/08/03 05:07:16;;;;;;;22.70;3.30;;;;;;;16.57;100.00;23560.44;5120970;27;20023;-75
2023/08/03 05:09:42;;;;;;;18.93;3.40;;;;;;;16.62;100.00;20785.66;5121680;27;20408;-75
2023/08/03 05:12:07;;;;;;;23.07;3.57;;;;;;;16.58;100.00;19743.41;5121654;27;20026;-75
2023/08/03 05:14:33;;;;;;;22.07;3.77;;;;;;;16.63;100.00;19745.19;5125898;27;20027;-77
2023/08/03 05:16:58;;;;;;;17.53;3.17;;;;;;;16.63;100.00;19745.34;5119643;27;20499;-75
2023/08/03 05:19:23;;;;;;;26.40;3.60;;;;;;;16.56;100.00;19742.91;5127755;27;20080;-76
2023/08/03 05:21:49;;;;;;;24.17;4.50;;;;;;;16.61;100.00;17663.88;5118073;27;20404;-75
2023/08/03 05:24:14;;;;;;;20.50;3.77;;;;;;;16.48;100.00;17659.75;5120985;27;20026;-76
2023/08/03 05:26:40;;;;;;;25.93;3.30;;;;;;;16.53;100.00;15235.34;5122393;27;20023;-76
2023/08/03 05:29:05;;;;;;;17.50;3.10;;;;;;;16.52;100.00;14195.91;5123310;27;20398;-75
2023/08/03 05:31:30;;;;;;;23.67;3.50;;;;;;;16.61;100.00;14198.25;5122866;27;20072;-75
2023/08/03 05:33:56;;;;;;;21.77;4.37;;;;;;;16.61;100.00;14198.25;5117527;27;20065;-74
2023/08/03 05:36:23;;;;;;;19.27;4.43;;;;;;;16.57;100.00;14543.72;5118317;27;20118;-73
2023/08/03 05:38:52;;;;;;;17.35;3.30;;;;;;;16.53;100.00;14888.91;5114909;27;20034;-73
2023/08/03 05:41:22;;;;;;;11.38;3.15;;;;;;;16.49;100.00;14195.13;5118707;27;20387;-73
2023/08/03 05:43:47;;;;;;;15.48;4.15;;;;;;;16.45;100.00;13501.53;5117442;27;20035;-74
2023/08/03 05:46:14;;;;;;;19.90;2.60;;;;;;;16.49;100.00;12464.00;5116031;27;20401;-73
2023/08/03 05:48:40;;;;;;;13.70;2.88;;;;;;;16.47;100.00;11771.28;5118438;27;20015;-73
2023/08/03 05:51:07;;;;;;;20.65;2.88;;;;;;;16.51;100.00;11079.88;5116387;27;20050;-73
2023/08/03 05:53:33;;;;;;;15.63;2.95;;;;;;;16.59;100.00;10735.47;5118956;27;20104;-73
2023/08/03 05:55:59;;;;;;;16.93;2.73;;;;;;;16.56;100.00;10734.87;5118050;27;20031;-75
2023/08/03 05:58:24;;;;;;;12.97;3.00;;;;;;;16.53;100.00;10388.31;5120593;27;20387;-74
2023/08/03 06:00:50;;;;;;;13.47;2.80;;;;;;;16.51;100.00;9696.00;5117957;27;20484;-73
2023/08/03 06:03:17;;;;;;;17.27;3.10;;;;;;;16.55;100.00;8313.06;5117966;27;20108;-73
2023/08/03 06:05:48;;;;;;;24.42;3.72;;;;;;;16.55;100.00;7621.47;5120190;27;20023;-74
2023/08/03 06:08:19;;;;;;;15.85;3.45;;;;;;;16.56;100.00;7275.94;5122973;27;20515;-73
2023/08/03 06:10:47;;;;;;;20.70;3.10;;;;;;;16.55;100.00;7275.72;5121527;27;20023;-73
2023/08/03 06:13:17;;;;;;;23.55;3.50;;;;;;;16.54;100.00;7621.31;5117851;27;20102;-73
2023/08/03 06:15:45;;;;;;;14.20;2.95;;;;;;;16.56;100.00;7967.41;5118563;27;20027;-74
2023/08/03 06:18:13;;;;;;;18.27;3.25;;;;;;;16.59;100.00;8659.63;5117952;27;20028;-73
2023/08/03 06:20:42;;;;;;;21.92;4.72;;;;;;;16.53;100.00;9696.38;5120415;27;20019;-73
2023/08/03 06:23:15;;;;;;;19.27;4.10;;;;;;;16.53;100.00;10042.22;5116114;27;20035;-73
2023/08/03 06:25:41;;;;;;;17.90;4.28;;;;;;;16.57;100.00;10389.13;5115076;27;20110;-73
2023/08/03 06:28:09;;;;;;;22.52;5.82;;;;;;;16.61;100.00;9697.78;5124181;27;20563;-72
2023/08/03 06:30:35;;;;;;;20.15;4.30;;;;;;;16.58;100.00;9005.34;5119285;27;20037;-73
2023/08/03 06:33:00;;;;;;;22.48;3.13;;;;;;;16.64;100.00;8314.56;5120247;27;20019;-74
2023/08/03 06:35:38;;;;;;;27.37;3.83;;;;;;;16.69;100.00;8315.41;5118905;27;20061;-73
2023/08/03 06:38:05;;;;;;;26.05;4.47;;;;;;;16.70;100.00;8315.66;5115998;27;20035;-73
2023/08/03 06:40:32;;;;;;;28.30;5.07;;;;;;;16.78;100.00;8316.97;5115134;27;20042;-73
2023/08/03 06:42:59;;;;;;;26.23;4.10;;;;;;;16.75;100.00;9008.34;5114430;27;20065;-74
2023/08/03 06:45:24;;;;;;;25.40;4.15;;;;;;;16.74;100.00;10392.53;5114047;27;20031;-73
2023/08/03 06:47:49;;;;;;;19.40;4.13;;;;;;;16.82;100.00;10394.13;5120121;27;20030;-73
2023/08/03 06:50:15;;;;;;;21.13;4.43;;;;;;;16.88;100.00;11780.41;5117260;27;20092;-73
2023/08/03 06:52:40;;;;;;;23.23;4.33;;;;;;;16.92;100.00;12474.03;5117186;27;20416;-73
2023/08/03 06:55:06;;;;;;;32.17;5.30;;;;;;;16.98;100.00;13168.28;5121702;27;20392;-73
2023/08/03 06:57:31;;;;;;;22.60;4.47;;;;;;;17.00;100.00;13515.31;5118691;27;21671;-73
2023/08/03 06:59:57;;;;;;;16.83;3.60;;;;;;;17.05;100.00;14556.44;5114958;27;20032;-74
2023/08/03 07:02:23;;;;;;;25.70;4.97;;;;;;;17.06;100.00;15597.00;5115529;27;20031;-73
2023/08/03 07:04:48;;;;;;;28.77;4.33;;;;;;;17.05;100.00;14903.25;5115757;27;20054;-73
2023/08/03 07:07:16;;;;;;;16.93;3.30;;;;;;;16.99;100.00;14901.47;5117017;27;20045;-74
2023/08/03 07:09:48;;;;;;;30.60;4.55;;;;;;;16.99;100.00;13515.06;5120051;27;20049;-73
2023/08/03 07:12:13;;;;;;;31.15;4.85;;;;;;;16.99;100.00;12475.69;5112065;27;20030;-73
2023/08/03 07:14:39;;;;;;;23.93;4.73;;;;;;;17.08;100.00;11438.31;5111196;27;20031;-73
2023/08/03 07:17:05;;;;;;;18.47;3.63;;;;;;;17.05;100.00;11437.66;5115632;27;20087;-73
2023/08/03 07:19:30;;;;;;;26.17;4.10;;;;;;;17.06;100.00;11091.59;5116313;27;20096;-73
2023/08/03 07:21:55;;;;;;;31.00;5.60;;;;;;;17.10;100.00;10745.97;5114693;27;20027;-74
2023/08/03 07:24:21;;;;;;;30.23;5.50;;;;;;;17.19;100.00;11094.25;5115690;27;20048;-73
2023/08/03 07:26:50;;;;;;;18.70;4.73;;;;;;;17.30;100.00;11443.09;5118006;27;20031;-74
2023/08/03 07:29:16;;;;;;;30.58;4.43;;;;;;;17.28;100.00;12135.75;5123364;27;20030;-73
2023/08/03 07:31:41;;;;;;;34.03;4.57;;;;;;;17.29;100.00;12482.69;5113878;27;20015;-74
2023/08/03 07:34:06;;;;;;;34.50;4.83;;;;;;;17.34;100.00;12137.13;5119560;27;20023;-74
2023/08/03 07:36:32;;;;;;;30.37;4.83;;;;;;;17.57;100.00;11102.28;5119930;27;20027;-74
2023/08/03 07:38:57;;;;;;;24.93;4.77;;;;;;;17.75;100.00;12493.47;5115983;27;20546;-74
2023/08/03 07:41:23;;;;;;;25.97;4.20;;;;;;;17.96;100.00;14580.97;5112719;27;20114;-73
2023/08/03 07:43:50;;;;;;;23.47;4.70;;;;;;;18.04;100.00;17361.78;5116444;27;20031;-75
2023/08/03 07:46:15;;;;;;;31.75;5.32;;;;;;;18.09;100.00;22579.44;5112095;27;20027;-74
2023/08/03 07:48:41;;;;;;;27.83;5.10;;;;;;;18.28;100.00;26069.56;5121479;27;20027;-73
2023/08/03 07:51:14;;;;;;;28.33;4.67;;;;;;;18.86;100.00;30282.88;5114924;27;20065;-74
2023/08/03 07:53:41;;;;;;;21.50;4.47;;;;;;;19.32;100.00;42903.69;5116091;27;20496;-74
2023/08/03 07:56:16;;;;;;;19.93;3.60;;;;;;;18.99;100.00;60784.78;5114096;28;20092;-73
2023/08/03 07:58:42;;;;;;;14.43;3.35;;;;;;;19.10;100.00;71015.41;5120045;28;20136;-74
2023/08/03 08:01:08;;;;;;;20.30;3.65;;;;;;;19.69;100.00;83820.63;5109415;28;20035;-73
2023/08/03 08:03:35;;;;;;;16.50;3.40;;;;;;;19.83;100.00;104448.41;5112616;28;20034;-73
2023/08/03 08:06:08;;;;;;;18.20;3.95;;;;;;;20.01;100.00;118757.25;5117473;28;20073;-74
2023/08/03 08:08:34;;;;;;;20.83;3.80;;;;;;;19.70;100.00;130146.97;5116423;28;20032;-73
2023/08/03 08:10:59;;;;;;;14.77;3.47;;;;;;;19.54;100.00;132262.50;5116235;28;20038;-73
2023/08/03 08:13:25;;;;;;;20.13;3.10;;;;;;;19.32;100.00;126485.69;5115933;28;20081;-74
2023/08/03 08:15:50;;;;;;;18.83;3.20;;;;;;;19.40;100.00;121136.75;5116558;27;20098;-73
2023/08/03 08:18:15;;;;;;;10.33;2.80;;;;;;;19.44;100.00;126868.94;5119748;28;20026;-73
2023/08/03 08:20:41;;;;;;;10.10;2.90;;;;;;;19.69;100.00;129069.84;5114017;28;20031;-73
2023/08/03 08:23:07;;;;;;;14.23;2.80;;;;;;;19.72;100.00;136608.47;5119142;28;20037;-73
2023/08/03 08:25:37;;;;;;;11.33;2.63;;;;;;;19.69;100.00;144144.97;5116952;28;20070;-73
2023/08/03 08:28:02;;;;;;;17.10;3.22;;;;;;;19.64;100.00;149431.38;5118181;28;20027;-73
2023/08/03 08:30:28;;;;;;;11.37;2.73;;;;;;;19.58;100.00;154295.91;5111728;28;20384;-74
2023/08/03 08:32:53;;;;;;;16.37;3.60;;;;;;;19.66;100.00;156378.31;5117019;28;20419;-74
2023/08/03 08:35:18;;;;;;;17.93;4.13;;;;;;;19.66;100.00;153612.50;5120254;27;20050;-73
2023/08/03 08:37:44;;;;;;;15.27;4.27;;;;;;;19.70;100.00;148146.94;5124812;27;20055;-73
2023/08/03 08:40:12;;;;;;;14.23;3.03;;;;;;;19.49;100.00;136914.97;5122045;27;20065;-74
2023/08/03 08:42:38;;;;;;;15.02;3.05;;;;;;;19.57;100.00;139087.13;5121985;27;20055;-72
2023/08/03 08:45:07;;;;;;;18.83;3.67;;;;;;;19.68;100.00;135880.47;5119776;27;20081;-72
2023/08/03 08:47:32;;;;;;;17.88;3.58;;;;;;;19.85;100.00;135201.09;5116599;27;20027;-73
2023/08/03 08:49:58;;;;;;;17.80;4.13;;;;;;;20.07;100.00;152041.53;5154584;27;20117;-73
2023/08/03 08:52:25;;;;;;;16.13;3.37;;;;;;;20.25;100.00;151968.81;5117125;27;20126;-73
2023/08/03 08:55:09;;;;;;;18.67;3.40;;;;;;;19.87;100.00;156280.88;5121234;27;20039;-73
2023/08/03 08:57:34;;;;;;;25.73;4.88;;;;;;;19.09;100.00;60091.72;5118139;27;20023;-75
2023/08/03 09:00:02;;;;;;;20.77;4.50;;;;;;;18.77;100.00;50575.09;5116553;27;20477;-75
2023/08/03 09:02:27;;;;;;;17.77;4.53;;;;;;;18.77;100.00;41813.22;5117003;27;20068;-74
2023/08/03 09:04:53;;;;;;;21.03;4.00;;;;;;;18.61;100.00;42152.19;5121553;27;20435;-74
2023/08/03 09:07:18;;;;;;;19.73;3.90;;;;;;;18.55;100.00;42147.50;5116135;27;20023;-72
2023/08/03 09:09:43;;;;;;;24.50;4.90;;;;;;;18.56;100.00;42848.63;5123849;27;20114;-72
2023/08/03 09:12:24;;;;;;;23.17;5.97;;;;;;;18.64;100.00;37256.66;5119741;27;20016;-73
2023/08/03 09:14:50;;;;;;;27.13;4.75;;;;;;;18.63;100.00;41803.59;5117047;27;20023;-73
2023/08/03 09:17:17;;;;;;;28.98;5.20;;;;;;;18.92;100.00;40773.56;5120399;27;20019;-72
2023/08/03 09:19:43;;;;;;;28.95;5.45;;;;;;;19.41;100.00;39406.50;5125967;27;20110;-71
2023/08/03 09:22:09;;;;;;;27.80;4.95;;;;;;;19.52;100.00;49585.13;5123434;27;20467;-73
2023/08/03 09:24:34;;;;;;;18.50;4.20;;;;;;;19.59;100.00;56974.06;5118187;27;20073;-72
2023/08/03 09:26:59;;;;;;;27.07;4.20;;;;;;;19.71;100.00;62972.75;5117701;27;20443;-73
2023/08/03 09:29:30;;;;;;;27.33;4.03;;;;;;;19.62;100.00;69312.00;5119171;27;20373;-73
2023/08/03 09:32:13;;;;;;;24.52;5.35;;;;;;;19.63;100.00;73198.00;5120736;27;20034;-74
2023/08/03 09:34:42;;;;;;;27.08;4.28;;;;;;;19.68;100.00;75679.09;5122672;27;20460;-73
2023/08/03 09:37:09;;;;;;;30.92;5.72;;;;;;;20.37;100.00;75765.91;5118053;27;20023;-73
2023/08/03 09:39:34;;;;;;;;;;;;;;;20.87;100.00;95362.84;5116683;27;20023;-73
2023/08/03 09:42:05;;;;;;;27.30;5.38;;;;;;;21.27;100.00;114350.41;5120530;27;19915;-74
2023/08/03 09:44:34;;;;;;;19.13;3.67;;;;;;;20.95;100.00;147713.25;5114518;27;20020;-74
2023/08/03 09:47:01;;;;;;;17.35;3.72;;;;;;;21.22;100.00;131554.91;5119923;27;20027;-73
2023/08/03 09:49:27;;;;;;;14.13;3.28;;;;;;;20.65;100.00;156637.91;5124353;27;20023;-73
2023/08/03 09:51:57;;;;;;;14.18;3.60;;;;;;;20.44;100.00;156583.09;5117323;27;20540;-73
2023/08/03 09:54:40;;;;;;;8.23;2.97;;;;;;;20.35;100.00;154833.75;5121880;27;20127;-73
2023/08/03 09:57:12;;;;;;;10.13;3.47;;;;;;;20.55;100.00;148858.28;5117456;27;20392;-73
2023/08/03 09:59:42;;;;;;;18.23;3.35;;;;;;;20.49;100.00;155449.56;5118137;27;20050;-73
2023/08/03 10:02:11;;;;;;;17.55;3.20;;;;;;;20.46;100.00;144331.28;5116154;27;20118;-74
2023/08/03 10:04:43;;;;;;;14.90;2.75;;;;;;;20.43;100.00;138566.34;5116802;27;20039;-73
2023/08/03 10:07:10;;;;;;;16.77;3.03;;;;;;;20.45;100.00;131745.28;5121066;27;20644;-74
2023/08/03 10:09:57;;;;;;;13.60;2.47;;;;;;;20.57;100.00;117794.59;5116764;27;20019;-73
2023/08/03 10:12:34;;;;;;;13.20;2.88;;;;;;;20.54;100.00;118145.53;5118364;27;20022;-73
2023/08/03 10:15:00;;;;;;;;;;;;;;;20.25;100.00;145719.50;5121500;27;20444;-74
2023/08/03 10:17:28;;;;;;;20.70;3.03;;;;;;;19.95;100.00;149984.22;5116991;27;19961;-73
2023/08/03 10:19:53;;;;;;;29.08;4.68;;;;;;;19.54;100.00;114735.09;5118608;27;20068;-76
2023/08/03 10:22:19;;;;;;;14.23;3.17;;;;;;;19.18;100.00;87645.94;5117891;27;20027;-75
2023/08/03 10:25:18;;;;;;;16.57;2.50;;;;;;;18.83;100.00;68867.72;5120353;27;20593;-75
2023/08/03 10:28:13;;;;;;;15.90;2.80;;;;;;;18.49;100.00;56868.09;5119902;27;20042;-74
2023/08/03 10:31:10;;;;;;;9.15;2.10;;;;;;;18.27;100.00;46678.03;5118517;27;20485;-73
2023/08/03 10:33:51;;;;;;;10.48;2.17;;;;;;;18.17;100.00;44569.69;5118311;27;20027;-73
2023/08/03 10:36:28;;;;;;;11.15;1.70;;;;;;;18.17;100.00;41420.78;5111123;27;20092;-74
2023/08/03 10:38:58;;;;;;;9.25;2.60;;;;;;;18.15;100.00;38273.50;5118018;27;20405;-73
2023/08/03 10:41:28;;;;;;;10.27;2.55;;;;;;;18.19;100.00;39324.53;5117545;27;20039;-73
2023/08/03 10:44:05;;;;;;;9.50;2.53;;;;;;;18.31;100.00;40731.19;5117050;27;20027;-74
2023/08/03 10:46:41;;;;;;;13.07;2.75;;;;;;;18.33;100.00;39334.28;5115715;27;20965;-74
2023/08/03 10:49:19;;;;;;;8.60;1.75;;;;;;;18.31;100.00;43530.25;5116695;27;20027;-74
2023/08/03 10:51:45;;;;;;;6.95;2.17;;;;;;;18.25;100.00;47726.81;5119034;27;20031;-74
2023/08/03 10:54:11;;;;;;;6.97;2.17;;;;;;;18.09;100.00;51568.03;5115327;27;20528;-73
2023/08/03 10:56:37;;;;;;;6.00;2.10;;;;;;;18.13;100.00;48417.63;5120133;27;20035;-75
2023/08/03 10:59:03;;;;;;;10.60;1.80;;;;;;;17.84;100.00;48043.72;5114874;27;20028;-74
2023/08/03 11:01:28;;;;;;;4.93;2.00;;;;;;;17.93;100.00;42452.69;5114631;27;20128;-74
2023/08/03 11:03:54;;;;;;;3.90;1.33;;;;;;;17.94;100.00;39657.16;5120200;27;20063;-74
2023/08/03 11:06:20;;;;;;;9.20;2.42;;;;;;;17.85;100.00;38603.47;5116858;27;20400;-74
2023/08/03 11:08:46;;;;;;;4.47;1.35;;;;;;;17.63;100.00;38588.97;5117100;27;20231;-73
2023/08/03 11:11:13;;;;;;;4.70;1.50;;;;;;;17.56;100.00;36838.91;5115868;27;20015;-74
2023/08/03 11:13:42;;;;;;;5.18;1.40;;;;;;;17.50;100.00;34393.81;5116103;27;20037;-75
2023/08/03 11:16:07;;;;;;;5.47;1.80;;;;;;;17.56;100.00;34048.38;5113246;27;20070;-74
2023/08/03 11:18:36;;;;;;;8.40;1.47;;;;;;;17.48;100.00;33346.44;5115481;27;20346;-75